Pagrindinis puslapis
METAR-TAF:

METAR-TAF

Oro uostai :

Sandnessjøen, Norvegija

platuma: 65-58N, ilguma: 012-28E, Aukštis: 1 m

Dabartinis oras

Ataskaita buvo paskelbta 5 valandos ir 3 minutes, ne 21:20 UTC
Vėjas 5 kt nuo kintamojo kryptimis
Temperatūra 3°C
Drėgmė 48%
Slėgis 1011 hPa
Matomumas 10 km arba daugiau
nėra debesų žemiau 1500 m ir nėra kamuolinių lietaus debesų

METAR: ENST 182120Z VRB05KT CAVOK 03/M07 Q1011 RMK WIND 300FT 13010KT

Laikas: 04:23 (02:23 UTC)

Prognozė

Ataskaita buvo paskelbta 12 valandos ir 23 minutes, ne 14:00 UTC
Prognozė galioja nuo 18 metu 15 UTC su 18 metu 21 UTC
Vėjas 8 kt iš Pietų/Pietryčių
Matomumas 10 km arba daugiau
Mažai debesys ne aukštis 3000 ft
Išsisklaidę debesys ne aukštis 6000 ft

TAF: ENST 181400Z 1815/1821 15008KT 9999 FEW030 SCT060

Orai ataskaitas ir orų prognozės (METAR, TAF).

turimą stotys yra geltonos ir raudonos taškus žemėlapyje.

Perkelti pele per norėdami pamatyti stoties vardą.

Tada spustelėkite, norėdami matyti oro stebėjimo ir prognozės.

Norėdami pakeisti žemėlapį: spustelėkite ant žalios mygtukų su juodo kryžiaus žemyn,; žalią mygtuką su brūkšneliu, jei norite nutolinti; arba žalių rodyklių gretimoms žemėlapius.


METAR-TAF: